Time;durP1;ratioP1;P1;durP2;ratioP2;P2;SDS_P1;SDS_P2;PMS_P1;PMS_P2;Temp;Humidity;BMP_temperature;BMP_pressure;BME280_temperature;BME280_humidity;BME280_pressure;Samples;Min_cycle;Max_cycle;Signal;HPM_P1;HPM_P2
2022/08/30 00:01:01;;;;;;;7.90;3.40;;;;;;;20.56;88.72;101624.13;5013817;28;20072;-70
2022/08/30 00:03:33;;;;;;;8.77;3.63;;;;;;;20.59;88.22;101616.81;5019360;28;20059;-71
2022/08/30 00:06:00;;;;;;;7.18;3.20;;;;;;;20.59;88.67;101608.38;5017145;28;20108;-70
2022/08/30 00:08:27;;;;;;;5.70;3.25;;;;;;;20.58;88.56;101620.88;5014455;28;20052;-71
2022/08/30 00:10:54;;;;;;;9.57;3.50;;;;;;;20.58;88.86;101620.88;5032948;28;20045;-66
2022/08/30 00:13:21;;;;;;;11.00;3.25;;;;;;;20.58;88.46;101621.66;5034631;28;20053;-68
2022/08/30 00:15:48;;;;;;;6.07;3.15;;;;;;;20.56;88.62;101617.72;5034999;28;20835;-68
2022/08/30 00:18:17;;;;;;;7.88;2.95;;;;;;;20.53;89.00;101605.34;5048612;28;20076;-68
2022/08/30 00:20:46;;;;;;;13.35;3.15;;;;;;;20.52;88.79;101612.19;5036187;28;20506;-69
2022/08/30 00:23:13;;;;;;;6.80;2.95;;;;;;;20.47;89.93;101604.28;5047687;28;20541;-67
2022/08/30 00:25:40;;;;;;;6.22;2.75;;;;;;;20.46;88.45;101593.47;5047211;28;20057;-69
2022/08/30 00:28:08;;;;;;;5.93;2.70;;;;;;;20.43;89.57;101597.97;5038371;28;20056;-67
2022/08/30 00:30:36;;;;;;;9.82;3.25;;;;;;;20.41;89.79;101594.81;5040489;28;20048;-68
2022/08/30 00:33:03;;;;;;;5.13;3.10;;;;;;;20.36;89.90;101595.38;5047880;28;20127;-69
2022/08/30 00:35:30;;;;;;;6.55;3.30;;;;;;;20.35;90.14;101603.00;5042737;28;20128;-68
2022/08/30 00:37:57;;;;;;;9.48;3.72;;;;;;;20.30;90.13;101602.75;5045590;28;20049;-68
2022/08/30 00:40:25;;;;;;;5.93;3.15;;;;;;;20.34;90.03;101603.44;5037280;28;20502;-68
2022/08/30 00:42:58;;;;;;;7.82;3.35;;;;;;;20.32;91.07;101601.06;5045281;28;20081;-68
2022/08/30 00:45:31;;;;;;;8.18;2.90;;;;;;;20.28;90.44;101594.75;5041171;28;20389;-68
2022/08/30 00:47:58;;;;;;;8.18;3.10;;;;;;;20.30;90.50;101606.38;5033387;28;20152;-68
2022/08/30 00:50:29;;;;;;;7.88;3.10;;;;;;;20.29;90.78;101601.19;5043481;28;20071;-68
2022/08/30 00:52:59;;;;;;;7.68;2.92;;;;;;;20.29;90.55;101601.97;5040257;28;20513;-67
2022/08/30 00:55:26;;;;;;;6.43;3.13;;;;;;;20.29;90.45;101599.13;5043726;28;20498;-67
2022/08/30 00:57:57;;;;;;;6.78;3.13;;;;;;;20.28;90.58;101594.75;5034342;28;20517;-67
2022/08/30 01:00:26;;;;;;;5.97;3.47;;;;;;;20.28;90.46;101608.00;5045129;28;20137;-68
2022/08/30 01:02:53;;;;;;;5.18;3.15;;;;;;;20.27;90.97;101607.25;5038002;28;20103;-68
2022/08/30 01:05:22;;;;;;;6.97;3.53;;;;;;;20.25;90.51;101598.47;5042351;28;20049;-66
2022/08/30 01:07:49;;;;;;;6.70;3.20;;;;;;;20.25;90.94;101609.69;5044829;28;20136;-69
2022/08/30 01:10:16;;;;;;;7.50;3.13;;;;;;;20.23;90.44;101600.13;5038463;28;20143;-67
2022/08/30 01:12:44;;;;;;;7.25;3.15;;;;;;;20.24;91.12;101604.50;5031472;28;20060;-68
2022/08/30 01:15:15;;;;;;;8.05;2.78;;;;;;;20.24;91.05;101608.13;5048457;28;20131;-67
2022/08/30 01:17:45;;;;;;;7.50;2.90;;;;;;;20.23;91.62;101615.00;5044136;28;20138;-68
2022/08/30 01:20:19;;;;;;;6.80;3.03;;;;;;;20.22;91.38;101604.97;5040509;28;20438;-67
2022/08/30 01:22:48;;;;;;;6.55;3.00;;;;;;;20.19;91.24;101611.47;5032178;28;20063;-68
2022/08/30 01:25:26;;;;;;;8.88;3.65;;;;;;;20.17;92.07;101607.53;5038816;28;20142;-67
2022/08/30 01:28:00;;;;;;;5.00;2.78;;;;;;;20.16;91.88;101615.19;5041519;28;20102;-68
2022/08/30 01:30:28;;;;;;;12.10;3.40;;;;;;;20.16;91.33;101612.38;5041830;28;20075;-68
2022/08/30 01:32:58;;;;;;;7.75;3.13;;;;;;;20.10;91.34;101608.47;5046004;28;20055;-69
2022/08/30 01:35:26;;;;;;;6.18;3.17;;;;;;;20.09;92.01;101601.25;5042909;28;20053;-68
2022/08/30 01:37:52;;;;;;;8.27;3.05;;;;;;;20.06;91.98;101601.38;5044727;28;20159;-68
2022/08/30 01:40:19;;;;;;;11.18;3.38;;;;;;;20.02;92.21;101598.63;5036390;28;20128;-68
2022/08/30 01:42:47;;;;;;;7.70;3.00;;;;;;;19.98;92.46;101602.78;5041206;28;20053;-67
2022/08/30 01:45:13;;;;;;;7.35;3.13;;;;;;;19.97;93.31;101606.81;5039534;28;20131;-68
2022/08/30 01:47:41;;;;;;;6.28;3.30;;;;;;;19.95;93.82;101610.06;5041995;28;20048;-67
2022/08/30 01:50:09;;;;;;;8.82;3.30;;;;;;;19.95;93.11;101612.88;5038211;28;20072;-67
2022/08/30 01:52:36;;;;;;;5.30;3.08;;;;;;;19.89;93.41;101605.41;5040287;28;20047;-67
2022/08/30 01:55:04;;;;;;;4.93;3.00;;;;;;;19.89;94.01;101611.84;5039467;28;20132;-68
2022/08/30 01:57:31;;;;;;;5.88;3.25;;;;;;;19.89;94.07;101619.47;5038412;28;20045;-67
2022/08/30 01:59:57;;;;;;;7.70;3.10;;;;;;;19.87;94.25;101619.09;5039934;28;20055;-69
2022/08/30 02:02:26;;;;;;;6.70;3.05;;;;;;;19.86;94.17;101623.94;5043310;28;20061;-69
2022/08/30 02:04:53;;;;;;;6.18;3.00;;;;;;;19.87;93.53;101625.50;5034679;28;20040;-68
2022/08/30 02:07:21;;;;;;;5.95;3.10;;;;;;;19.83;93.58;101627.63;5032608;28;20048;-68
2022/08/30 02:09:48;;;;;;;7.53;3.40;;;;;;;19.81;94.47;101621.66;5043027;28;20049;-69
2022/08/30 02:12:14;;;;;;;7.10;3.65;;;;;;;19.77;94.57;101628.56;5042622;28;20041;-68
2022/08/30 02:14:41;;;;;;;4.63;2.97;;;;;;;19.75;95.40;101620.59;5044753;28;20071;-67
2022/08/30 02:17:09;;;;;;;6.80;3.42;;;;;;;19.73;94.70;101620.25;5045897;28;20145;-69
2022/08/30 02:19:36;;;;;;;8.15;3.63;;;;;;;19.67;95.64;101630.41;5043121;28;20045;-71
2022/08/30 02:22:03;;;;;;;5.47;2.83;;;;;;;19.63;95.57;101620.50;5032210;28;20083;-68
2022/08/30 02:24:30;;;;;;;10.30;3.50;;;;;;;19.61;96.60;101618.13;5035355;28;20077;-70
2022/08/30 02:26:56;;;;;;;7.45;3.17;;;;;;;19.60;96.31;101616.56;5035843;28;20079;-69
2022/08/30 02:29:24;;;;;;;11.90;3.78;;;;;;;19.60;96.79;101615.75;5035487;28;20528;-68
2022/08/30 02:31:50;;;;;;;4.93;3.10;;;;;;;19.60;96.87;101604.53;5036692;28;20084;-69
2022/08/30 02:34:17;;;;;;;7.93;3.33;;;;;;;19.55;96.80;101596.66;5037517;28;20049;-67
2022/08/30 02:36:44;;;;;;;7.05;2.95;;;;;;;19.49;97.14;101610.41;5028215;28;20137;-68
2022/08/30 02:39:12;;;;;;;6.53;3.60;;;;;;;19.46;97.68;101616.91;5044375;28;20144;-69
2022/08/30 02:41:40;;;;;;;7.25;3.35;;;;;;;19.39;97.76;101605.84;5039490;28;20044;-68
2022/08/30 02:44:07;;;;;;;6.55;2.92;;;;;;;19.40;97.84;101601.00;5038356;28;20409;-70
2022/08/30 02:46:34;;;;;;;8.70;3.90;;;;;;;19.34;97.50;101602.75;5033982;28;20046;-67
2022/08/30 02:49:01;;;;;;;7.55;3.55;;;;;;;19.30;99.05;101605.63;5032659;28;20450;-67
2022/08/30 02:51:48;;;;;;;9.25;4.43;;;;;;;19.26;98.56;101595.72;5039006;28;20064;-68
2022/08/30 02:54:18;;;;;;;9.52;4.68;;;;;;;19.22;99.57;101601.38;5038985;28;20135;-67
2022/08/30 02:56:49;;;;;;;7.57;4.18;;;;;;;19.16;99.55;101591.91;5037626;28;20053;-69
2022/08/30 02:59:17;;;;;;;9.45;4.03;;;;;;;19.19;99.72;101602.25;5037333;28;20077;-69
2022/08/30 03:01:44;;;;;;;9.95;3.80;;;;;;;19.13;99.47;101606.78;5042614;28;20081;-69
2022/08/30 03:04:10;;;;;;;11.10;3.80;;;;;;;19.13;99.52;101597.59;5038927;28;20088;-68
2022/08/30 03:06:37;;;;;;;12.63;4.55;;;;;;;19.05;100.00;101599.78;5041063;28;20052;-68
2022/08/30 03:09:04;;;;;;;7.78;4.20;;;;;;;19.00;100.00;101593.88;5038304;28;20136;-69
2022/08/30 03:11:31;;;;;;;6.35;3.90;;;;;;;18.98;100.00;101601.94;5041895;28;20190;-68
2022/08/30 03:13:57;;;;;;;6.38;3.83;;;;;;;18.94;100.00;101598.41;5040035;28;20420;-69
2022/08/30 03:16:24;;;;;;;9.80;4.07;;;;;;;18.92;100.00;101604.47;5037354;28;20049;-70
2022/08/30 03:18:51;;;;;;;12.20;4.50;;;;;;;18.86;100.00;101611.03;5045409;28;20064;-68
2022/08/30 03:21:17;;;;;;;8.68;3.83;;;;;;;18.81;100.00;101605.91;5033055;28;20513;-66
2022/08/30 03:23:44;;;;;;;9.38;4.45;;;;;;;18.79;100.00;101602.72;5044397;28;20049;-68
2022/08/30 03:26:13;;;;;;;8.65;3.90;;;;;;;18.74;100.00;101595.63;5043006;28;20531;-68
2022/08/30 03:28:43;;;;;;;10.70;4.47;;;;;;;18.69;100.00;101600.97;5029734;28;20527;-68
2022/08/30 03:31:10;;;;;;;7.75;4.43;;;;;;;18.67;100.00;101600.59;5039872;28;20053;-68
2022/08/30 03:33:41;;;;;;;13.90;4.75;;;;;;;18.61;100.00;101594.69;5043379;28;20045;-68
2022/08/30 03:36:08;;;;;;;7.90;4.10;;;;;;;18.59;100.00;101599.16;5035384;28;20069;-68
2022/08/30 03:38:35;;;;;;;10.18;4.13;;;;;;;18.58;100.00;101591.94;5038895;28;20136;-69
2022/08/30 03:41:03;;;;;;;9.95;4.20;;;;;;;18.52;100.00;101591.66;5043791;28;20045;-67
2022/08/30 03:43:32;;;;;;;7.82;4.57;;;;;;;18.48;100.00;101593.75;5046540;28;20091;-67
2022/08/30 03:46:00;;;;;;;10.55;4.32;;;;;;;18.48;100.00;101592.94;5036778;28;20425;-68
2022/08/30 03:48:28;;;;;;;11.00;5.03;;;;;;;18.46;100.00;101592.59;5047073;28;20044;-68
2022/08/30 03:50:56;;;;;;;13.50;4.80;;;;;;;18.47;100.00;101594.97;5038508;28;20425;-67
2022/08/30 03:53:23;;;;;;;10.63;4.90;;;;;;;18.47;100.00;101591.38;5036796;28;20044;-68
2022/08/30 03:55:53;;;;;;;11.05;4.85;;;;;;;18.44;100.00;101598.63;5038028;28;20118;-68
2022/08/30 03:58:20;;;;;;;9.23;4.53;;;;;;;18.43;100.00;101601.88;5037502;28;20057;-68
2022/08/30 04:00:46;;;;;;;10.10;4.45;;;;;;;18.45;100.00;101605.81;5038918;28;20046;-69
2022/08/30 04:03:13;;;;;;;8.70;4.88;;;;;;;18.48;100.00;101606.97;5039714;28;20049;-67
2022/08/30 04:05:40;;;;;;;10.63;4.60;;;;;;;18.45;100.00;101613.44;5040605;28;20049;-69
2022/08/30 04:08:07;;;;;;;9.40;4.82;;;;;;;18.44;100.00;101615.47;5047332;28;20041;-68
2022/08/30 04:10:34;;;;;;;10.77;5.13;;;;;;;18.43;100.00;101616.69;5049196;28;20186;-69
2022/08/30 04:13:00;;;;;;;11.07;5.47;;;;;;;18.41;100.00;101616.31;5045124;28;20049;-69
2022/08/30 04:15:27;;;;;;;11.02;5.15;;;;;;;18.39;100.00;101609.56;5042822;28;20055;-68
2022/08/30 04:17:53;;;;;;;10.07;4.93;;;;;;;18.42;100.00;101620.69;5039527;28;20140;-67
2022/08/30 04:20:20;;;;;;;11.48;5.10;;;;;;;18.45;100.00;101621.84;5043359;28;20421;-69
2022/08/30 04:22:47;;;;;;;10.40;5.30;;;;;;;18.40;100.00;101622.34;5047434;28;20059;-69
2022/08/30 04:25:13;;;;;;;8.52;4.63;;;;;;;18.39;100.00;101610.34;5047882;28;20049;-66
2022/08/30 04:27:42;;;;;;;10.20;4.95;;;;;;;18.38;100.00;101614.38;5045593;28;20070;-67
2022/08/30 04:30:09;;;;;;;8.30;4.47;;;;;;;18.38;100.00;101613.56;5038216;28;20766;-70
2022/08/30 04:32:37;;;;;;;12.05;5.68;;;;;;;18.36;100.00;101618.81;5036475;28;20052;-67
2022/08/30 04:35:04;;;;;;;12.55;5.00;;;;;;;18.30;100.00;101623.28;5032558;28;20053;-69
2022/08/30 04:37:31;;;;;;;12.98;5.60;;;;;;;18.27;100.00;101630.56;5042712;28;20552;-68
2022/08/30 04:40:00;;;;;;;10.52;5.30;;;;;;;18.24;100.00;101631.41;5039268;28;20049;-67
2022/08/30 04:42:30;;;;;;;9.32;4.80;;;;;;;18.21;100.00;101632.25;5030736;28;20041;-67
2022/08/30 04:44:59;;;;;;;9.07;5.05;;;;;;;18.21;100.00;101626.66;5030845;28;20053;-67
2022/08/30 04:47:25;;;;;;;13.77;5.65;;;;;;;18.19;100.00;101622.72;5041066;28;20679;-67
2022/08/30 04:49:52;;;;;;;8.55;4.82;;;;;;;18.16;100.00;101623.56;5042240;28;20052;-69
2022/08/30 04:52:19;;;;;;;8.77;4.82;;;;;;;18.12;100.00;101623.59;5041100;28;20132;-67
2022/08/30 04:54:45;;;;;;;9.52;5.20;;;;;;;18.06;100.00;101625.34;5040463;28;20056;-64
2022/08/30 04:57:12;;;;;;;12.82;6.00;;;;;;;18.04;100.00;101619.34;5034823;28;20599;-65
2022/08/30 04:59:38;;;;;;;13.00;6.28;;;;;;;18.02;100.00;101622.59;5040204;28;20052;-69
2022/08/30 05:02:05;;;;;;;11.32;4.60;;;;;;;18.02;100.00;101629.41;5034989;28;20056;-67
2022/08/30 05:04:31;;;;;;;9.27;5.10;;;;;;;17.99;100.00;101631.84;5039718;28;20048;-67
2022/08/30 05:06:58;;;;;;;12.45;5.72;;;;;;;17.96;100.00;101634.72;5041662;28;20517;-69
2022/08/30 05:09:24;;;;;;;14.35;8.35;;;;;;;17.93;100.00;101633.53;5044108;28;20052;-70
2022/08/30 05:11:51;;;;;;;11.43;5.35;;;;;;;17.91;100.00;101640.78;5033986;28;20481;-66
2022/08/30 05:14:17;;;;;;;10.73;5.80;;;;;;;17.88;100.00;101639.63;5045078;28;20059;-69
2022/08/30 05:16:45;;;;;;;15.07;4.70;;;;;;;17.88;100.00;101636.84;5036659;28;20159;-69
2022/08/30 05:19:11;;;;;;;14.52;6.00;;;;;;;17.88;100.00;101647.22;5034269;28;20049;-69
2022/08/30 05:21:39;;;;;;;12.95;5.82;;;;;;;17.85;100.00;101648.88;5043758;28;20098;-66
2022/08/30 05:24:06;;;;;;;10.10;5.22;;;;;;;17.84;100.00;101652.09;5037956;28;20057;-65
2022/08/30 05:26:36;;;;;;;11.25;6.00;;;;;;;17.85;100.00;101654.47;5036880;28;20051;-70
2022/08/30 05:29:03;;;;;;;12.48;5.43;;;;;;;17.88;100.00;101653.63;5043720;28;20107;-69
2022/08/30 05:31:33;;;;;;;12.50;6.20;;;;;;;17.91;100.00;101661.19;5038748;28;20057;-69
2022/08/30 05:34:00;;;;;;;10.55;5.88;;;;;;;17.91;100.00;101658.38;5035786;28;20053;-70
2022/08/30 05:36:32;;;;;;;10.77;5.43;;;;;;;17.92;100.00;101659.97;5037317;28;20045;-68
2022/08/30 05:38:59;;;;;;;12.25;5.80;;;;;;;17.93;100.00;101661.53;5038072;28;20056;-69
2022/08/30 05:41:27;;;;;;;11.05;5.45;;;;;;;17.98;100.00;101658.25;5041831;28;20056;-69
2022/08/30 05:43:56;;;;;;;12.63;5.53;;;;;;;18.02;100.00;101661.00;5046854;28;20053;-69
2022/08/30 05:46:23;;;;;;;13.30;5.78;;;;;;;18.06;100.00;101663.75;5042673;28;20061;-68
2022/08/30 05:48:50;;;;;;;10.25;5.57;;;;;;;18.08;100.00;101666.94;5035636;28;20050;-71
2022/08/30 05:51:24;;;;;;;12.45;5.75;;;;;;;18.06;100.00;101667.34;5046216;28;20143;-71
2022/08/30 05:53:52;;;;;;;12.10;5.53;;;;;;;18.09;100.00;101669.28;5040657;28;20399;-68
2022/08/30 05:56:21;;;;;;;8.38;5.30;;;;;;;18.12;100.00;101671.22;5046357;28;20055;-69
2022/08/30 05:58:52;;;;;;;9.68;5.30;;;;;;;18.16;100.00;101668.38;5035381;28;20060;-66
2022/08/30 06:01:20;;;;;;;8.82;5.10;;;;;;;18.18;100.00;101669.53;5038788;28;20056;-67
2022/08/30 06:03:47;;;;;;;12.15;5.10;;;;;;;18.23;100.00;101666.25;5048243;28;20049;-67
2022/08/30 06:06:14;;;;;;;11.40;5.45;;;;;;;18.27;100.00;101668.97;5043181;28;20053;-67
2022/08/30 06:08:44;;;;;;;10.30;5.47;;;;;;;18.32;100.00;101676.91;5039294;28;20048;-66
2022/08/30 06:11:12;;;;;;;11.05;5.15;;;;;;;18.34;100.00;101680.84;5034895;28;20071;-67
2022/08/30 06:13:39;;;;;;;12.32;5.18;;;;;;;18.36;100.00;101678.44;5046297;28;20140;-62
2022/08/30 06:16:06;;;;;;;10.15;5.25;;;;;;;18.42;100.00;101671.13;5032387;28;20149;-66
2022/08/30 06:18:33;;;;;;;13.60;5.18;;;;;;;18.49;100.00;101667.41;5044317;28;20059;-65
2022/08/30 06:20:59;;;;;;;11.07;4.97;;;;;;;18.54;100.00;101678.91;5032697;28;20140;-66
2022/08/30 06:23:27;;;;;;;10.82;5.28;;;;;;;18.54;100.00;101676.13;5035811;28;20473;-67
2022/08/30 06:25:54;;;;;;;11.85;6.00;;;;;;;18.53;100.00;101673.75;5044970;28;20053;-65
2022/08/30 06:28:20;;;;;;;11.45;5.57;;;;;;;18.60;100.00;101677.22;5047627;28;20132;-68
2022/08/30 06:30:47;;;;;;;9.65;5.10;;;;;;;18.66;100.00;101681.09;5037463;28;20063;-68
2022/08/30 06:33:13;;;;;;;11.30;5.95;;;;;;;18.68;100.00;101683.47;5038373;28;20132;-66
2022/08/30 06:35:40;;;;;;;13.95;6.38;;;;;;;18.69;100.00;101688.63;5045718;28;20416;-67
2022/08/30 06:38:24;;;;;;;9.90;5.40;;;;;;;18.71;100.00;101689.00;5044118;28;20131;-68
2022/08/30 06:40:51;;;;;;;12.07;6.40;;;;;;;18.76;100.00;101685.69;5033362;28;20144;-66
2022/08/30 06:43:17;;;;;;;13.70;6.90;;;;;;;18.78;100.00;101691.69;5035005;28;20504;-65
2022/08/30 06:45:44;;;;;;;13.27;5.38;;;;;;;18.85;100.00;101690.72;5039716;28;20059;-66
2022/08/30 06:48:11;;;;;;;13.18;5.82;;;;;;;18.92;100.00;101691.38;5040545;28;20128;-67
2022/08/30 06:50:37;;;;;;;9.05;5.43;;;;;;;18.99;100.00;101687.66;5042559;28;20052;-67
2022/08/30 06:53:04;;;;;;;11.32;5.13;;;;;;;19.05;100.00;101681.13;5047497;28;20698;-69
2022/08/30 06:55:32;;;;;;;11.82;5.28;;;;;;;19.13;100.00;101676.16;5046813;28;20051;-68
2022/08/30 06:58:00;;;;;;;13.75;6.00;;;;;;;19.23;100.00;101675.91;5046443;28;20053;-67
2022/08/30 07:00:27;;;;;;;9.70;4.93;;;;;;;19.33;100.00;101680.53;5037921;28;20072;-67
2022/08/30 07:02:54;;;;;;;8.32;4.32;;;;;;;19.39;100.00;101678.81;5039671;28;20483;-66
2022/08/30 07:05:22;;;;;;;9.52;4.50;;;;;;;19.49;100.00;101674.97;5042009;28;20046;-67
2022/08/30 07:07:52;;;;;;;10.90;4.00;;;;;;;19.58;100.00;101677.19;5030552;28;20049;-71
2022/08/30 07:10:20;;;;;;;11.90;4.50;;;;;;;19.61;100.00;101673.50;5034430;28;20067;-67
2022/08/30 07:12:47;;;;;;;11.43;4.43;;;;;;;19.69;100.00;101674.91;5040504;28;20141;-67
2022/08/30 07:15:14;;;;;;;8.68;4.03;;;;;;;19.74;100.00;101675.19;5043990;28;20160;-66
2022/08/30 07:20:26;;;;;;;;;;;;;;;19.90;100.00;101665.97;5019155;28;20053;-66
2022/08/30 07:23:05;;;;;;;8.60;3.78;;;;;;;19.94;100.00;101675.09;5023254;28;19928;-71
2022/08/30 07:25:32;;;;;;;8.93;4.38;;;;;;;20.01;100.00;101677.72;5023494;28;20049;-69
2022/08/30 07:27:58;;;;;;;8.38;3.85;;;;;;;20.05;100.00;101673.59;5024936;28;20049;-71
2022/08/30 07:30:25;;;;;;;10.30;3.53;;;;;;;20.12;100.00;101679.09;5029754;28;20056;-68
2022/08/30 07:32:51;;;;;;;8.52;4.40;;;;;;;20.17;100.00;101684.19;5027892;28;20078;-69
2022/08/30 07:35:18;;;;;;;8.23;4.25;;;;;;;20.22;100.00;101666.78;5028519;28;20053;-69
2022/08/30 07:37:44;;;;;;;11.27;4.03;;;;;;;20.28;100.00;101672.66;5028404;28;20053;-73
2022/08/30 07:40:11;;;;;;;8.27;4.03;;;;;;;20.40;100.00;101680.38;5024371;28;20761;-70
2022/08/30 07:42:39;;;;;;;6.93;3.33;;;;;;;20.48;100.00;101678.97;5019370;28;20067;-69
2022/08/30 07:45:07;;;;;;;8.10;3.38;;;;;;;20.60;100.00;101691.50;5017604;28;20882;-70
2022/08/30 07:47:34;;;;;;;5.22;3.58;;;;;;;20.66;100.00;101681.28;5015961;28;20053;-66
2022/08/30 07:50:01;;;;;;;8.32;3.70;;;;;;;20.71;100.00;101689.97;5012750;28;20512;-72
2022/08/30 07:52:28;;;;;;;10.23;4.20;;;;;;;20.71;100.00;101681.53;5024333;28;20048;-70
2022/08/30 07:54:57;;;;;;;7.55;3.72;;;;;;;20.80;99.62;101690.16;5017845;28;20080;-67
2022/08/30 07:57:25;;;;;;;9.00;4.22;;;;;;;20.89;99.52;101684.63;5015995;28;20131;-69
2022/08/30 07:59:51;;;;;;;7.95;3.95;;;;;;;20.98;99.24;101684.03;5026968;28;20131;-68
2022/08/30 08:02:18;;;;;;;6.88;3.08;;;;;;;21.07;98.84;101682.16;5021178;28;20075;-69
2022/08/30 08:04:47;;;;;;;6.28;3.80;;;;;;;21.18;97.63;101691.06;5020268;28;20547;-72
2022/08/30 08:07:14;;;;;;;6.53;3.50;;;;;;;21.27;96.74;101691.22;5024082;28;20067;-69
2022/08/30 08:09:41;;;;;;;8.13;3.97;;;;;;;21.31;95.95;101693.91;5022261;28;20049;-70
2022/08/30 08:12:07;;;;;;;5.45;3.30;;;;;;;21.31;95.06;101693.91;5020658;28;20211;-72
2022/08/30 08:14:34;;;;;;;10.93;4.28;;;;;;;21.34;95.00;101693.81;5025326;28;20045;-71
2022/08/30 08:17:01;;;;;;;6.60;3.38;;;;;;;21.45;94.76;101694.28;5023692;28;20848;-72
2022/08/30 08:19:28;;;;;;;9.77;4.15;;;;;;;21.61;94.15;101701.84;5021113;28;20054;-69
2022/08/30 08:21:57;;;;;;;7.22;3.60;;;;;;;21.71;92.57;101701.53;5020240;28;20730;-70
2022/08/30 08:24:44;;;;;;;8.73;3.63;;;;;;;21.74;91.89;101700.63;5023245;28;20924;-71
2022/08/30 08:27:11;;;;;;;8.23;3.42;;;;;;;21.76;91.34;101705.81;5017816;28;20048;-65
2022/08/30 08:29:38;;;;;;;5.20;3.17;;;;;;;21.79;90.76;101700.06;5027561;28;20074;-69
2022/08/30 08:32:04;;;;;;;8.35;3.30;;;;;;;21.81;90.42;101691.97;5024821;28;20056;-70
2022/08/30 08:34:31;;;;;;;14.35;6.60;;;;;;;21.99;90.51;101705.47;5024686;28;20216;-72
2022/08/30 08:36:57;;;;;;;5.18;3.33;;;;;;;22.06;89.52;101702.41;5016996;28;20055;-70
2022/08/30 08:39:24;;;;;;;8.13;3.60;;;;;;;22.19;88.62;101697.56;5018162;28;20098;-66
2022/08/30 08:41:56;;;;;;;8.77;3.35;;;;;;;22.22;87.30;101703.09;5022638;28;20049;-71
2022/08/30 08:44:50;;;;;;;9.55;3.75;;;;;;;22.34;86.04;101704.31;5021818;28;20171;-70
2022/08/30 08:47:20;;;;;;;5.82;3.05;;;;;;;22.48;86.23;101715.91;5017991;28;20171;-68
2022/08/30 08:49:53;;;;;;;8.07;3.30;;;;;;;22.58;85.32;101708.34;5022002;28;20049;-69
2022/08/30 08:55:24;;;;;;;7.50;2.83;;;;;;;22.83;84.90;101701.78;5020515;28;20049;-72
2022/08/30 08:57:51;;;;;;;9.68;3.08;;;;;;;22.98;83.31;101706.47;5024507;28;20131;-71
2022/08/30 09:00:18;;;;;;;8.00;3.05;;;;;;;23.08;82.36;101704.53;5019350;28;20049;-69
2022/08/30 09:02:52;;;;;;;5.50;2.92;;;;;;;23.17;82.03;101704.56;5020660;28;20657;-70
2022/08/30 09:05:24;;;;;;;10.18;3.78;;;;;;;23.27;80.97;101700.56;5019717;28;20549;-71
2022/08/30 09:07:58;;;;;;;9.55;3.20;;;;;;;23.30;80.27;101697.63;5020631;28;20048;-71
2022/08/30 09:10:25;;;;;;;9.40;3.22;;;;;;;23.32;79.90;101695.13;5023898;28;20055;-70
2022/08/30 09:13:12;;;;;;;7.47;2.50;;;;;;;23.44;79.35;101711.22;5018731;28;20037;-68
2022/08/30 09:15:39;;;;;;;6.32;2.65;;;;;;;23.52;78.03;101701.19;5019006;28;20041;-72
2022/08/30 09:18:10;;;;;;;5.63;3.00;;;;;;;23.57;78.90;101697.78;5024213;28;20049;-70
2022/08/30 09:20:50;;;;;;;6.45;3.10;;;;;;;23.60;77.56;101699.69;5021265;28;20842;-69
2022/08/30 09:23:27;;;;;;;6.03;2.55;;;;;;;23.66;76.47;101692.16;5023712;28;20154;-68
2022/08/30 09:26:05;;;;;;;7.63;3.10;;;;;;;23.73;74.80;101696.75;5027742;28;20155;-69
2022/08/30 09:28:33;;;;;;;5.72;2.50;;;;;;;23.77;74.64;101692.53;5024255;28;20045;-69
2022/08/30 09:31:17;;;;;;;5.80;2.85;;;;;;;23.83;74.54;101696.31;5026349;28;20049;-70
2022/08/30 09:33:53;;;;;;;4.32;2.53;;;;;;;23.85;74.12;101698.69;5027415;28;20053;-73
2022/08/30 09:36:31;;;;;;;4.40;2.40;;;;;;;23.83;73.65;101701.19;5028713;28;20052;-73
2022/08/30 09:39:05;;;;;;;7.25;2.50;;;;;;;23.91;73.40;101696.81;5020140;28;20037;-68
2022/08/30 09:41:43;;;;;;;6.25;2.80;;;;;;;24.02;72.85;101700.03;5023265;28;20060;-69
2022/08/30 09:44:26;;;;;;;4.63;2.30;;;;;;;24.04;71.64;101689.84;5020330;28;20047;-72
2022/08/30 09:46:56;;;;;;;6.15;2.40;;;;;;;24.16;70.85;101690.97;5026520;28;20963;-70
2022/08/30 09:49:36;;;;;;;7.22;3.05;;;;;;;24.14;69.65;101696.31;5018661;28;20048;-71
2022/08/30 09:52:18;;;;;;;6.93;2.88;;;;;;;24.23;69.29;101691.44;5025603;28;20044;-72
2022/08/30 09:55:03;;;;;;;3.65;2.33;;;;;;;24.36;68.34;101694.13;5024815;28;20052;-70
2022/08/30 09:57:42;;;;;;;4.78;2.35;;;;;;;24.54;67.91;101688.53;5029175;28;20048;-71
2022/08/30 10:00:20;;;;;;;10.27;2.67;;;;;;;24.73;67.47;101685.25;5021372;28;20142;-71
2022/08/30 10:03:15;;;;;;;4.97;2.30;;;;;;;24.94;66.25;101677.88;5013700;28;20155;-67
2022/08/30 10:06:04;;;;;;;4.68;1.83;;;;;;;24.95;63.72;101680.22;5012706;28;20091;-67
2022/08/30 10:08:54;;;;;;;4.45;2.03;;;;;;;25.08;64.74;101675.16;5023348;28;20084;-71
2022/08/30 10:11:51;;;;;;;5.88;2.28;;;;;;;25.26;63.11;101670.72;5023713;28;20496;-69
2022/08/30 10:14:50;;;;;;;4.30;1.77;;;;;;;25.46;61.28;101685.16;5018988;28;20252;-70
2022/08/30 10:17:40;;;;;;;4.10;2.00;;;;;;;25.43;59.17;101669.91;5016399;28;20194;-69
2022/08/30 10:20:07;;;;;;;5.75;2.15;;;;;;;25.55;60.01;101670.97;5014903;28;20306;-71
2022/08/30 10:22:39;;;;;;;6.15;2.00;;;;;;;25.59;60.49;101674.41;5022263;28;20050;-72
2022/08/30 10:25:16;;;;;;;3.83;1.92;;;;;;;25.66;59.02;101671.25;5026352;28;20099;-70
2022/08/30 10:27:53;;;;;;;3.10;1.90;;;;;;;25.71;58.45;101673.44;5023758;28;20055;-70
2022/08/30 10:30:21;;;;;;;4.43;2.35;;;;;;;25.82;58.19;101673.69;5012412;28;20050;-70
2022/08/30 10:32:58;;;;;;;10.45;2.38;;;;;;;25.91;56.89;101665.91;5007408;28;20182;-69
2022/08/30 10:35:28;;;;;;;6.55;2.65;;;;;;;26.01;57.28;101655.34;5008498;28;20059;-69
2022/08/30 10:38:09;;;;;;;7.20;1.98;;;;;;;26.20;57.17;101657.59;5010517;28;20045;-70
2022/08/30 10:43:42;;;;;;;5.40;2.47;;;;;;;26.62;54.12;101657.44;5021833;28;20886;-70
2022/08/30 10:46:53;;;;;;;4.47;2.00;;;;;;;26.90;53.35;101661.63;5026344;28;20056;-67
2022/08/30 10:49:27;;;;;;;4.90;2.28;;;;;;;26.93;51.51;101660.66;5010068;28;20088;-70
2022/08/30 10:52:15;;;;;;;8.20;2.10;;;;;;;26.90;50.79;101653.13;5023247;28;20049;-69
2022/08/30 10:54:49;;;;;;;5.78;3.20;;;;;;;27.03;50.75;101660.06;5021176;28;20091;-71
2022/08/30 10:57:18;;;;;;;8.40;2.70;;;;;;;27.19;50.73;101645.41;5028059;28;20899;-71
2022/08/30 11:00:09;;;;;;;5.88;2.63;;;;;;;27.41;49.31;101654.31;5025720;28;20053;-67
2022/08/30 11:02:57;;;;;;;5.72;2.72;;;;;;;27.56;49.22;101647.84;5017358;28;20049;-69
2022/08/30 11:05:36;;;;;;;5.13;2.50;;;;;;;27.64;47.15;101654.69;5016407;28;20057;-71
2022/08/30 11:08:27;;;;;;;6.32;2.60;;;;;;;27.67;45.92;101645.94;5023773;28;20092;-69
2022/08/30 11:11:15;;;;;;;3.83;2.25;;;;;;;27.78;47.27;101651.81;5019388;28;20045;-67
2022/08/30 11:13:44;;;;;;;5.60;2.55;;;;;;;27.97;47.30;101646.69;5025607;28;20049;-67
2022/08/30 11:16:17;;;;;;;6.05;2.33;;;;;;;28.06;46.61;101650.19;5019653;28;20799;-69
2022/08/30 11:18:52;;;;;;;7.38;2.38;;;;;;;28.02;46.20;101649.63;5019057;28;20053;-69
2022/08/30 11:21:36;;;;;;;6.47;2.60;;;;;;;28.13;46.14;101644.06;5022918;28;20859;-70
2022/08/30 11:24:18;;;;;;;5.35;3.08;;;;;;;28.07;46.44;101639.59;5026550;28;20045;-70
2022/08/30 11:26:44;;;;;;;5.50;2.97;;;;;;;28.28;46.40;101647.63;5016959;28;20053;-70
2022/08/30 11:29:36;;;;;;;6.55;2.90;;;;;;;28.39;45.67;101644.94;5027314;28;20049;-69
2022/08/30 11:32:11;;;;;;;9.30;2.47;;;;;;;28.45;43.97;101654.34;5023178;28;20085;-71
2022/08/30 11:34:47;;;;;;;5.93;2.70;;;;;;;28.41;44.24;101638.75;5016802;28;20045;-69
2022/08/30 11:37:34;;;;;;;10.57;3.03;;;;;;;28.44;43.82;101640.59;5024845;28;20142;-70
2022/08/30 11:40:23;;;;;;;6.13;2.78;;;;;;;28.60;43.18;101648.56;5017115;28;20098;-69
2022/08/30 11:42:53;;;;;;;4.07;2.70;;;;;;;28.67;43.29;101643.22;5028278;28;20100;-71